createdAt,value
2018-08-06T00:00:50.242Z,101416.34
2018-08-06T00:03:18.571Z,101420.73
2018-08-06T00:05:46.986Z,101415.78
2018-08-06T00:08:15.345Z,101416.50
2018-08-06T00:10:43.672Z,101412.06
2018-08-06T00:13:12.105Z,101413.66
2018-08-06T00:15:40.508Z,101412.19
2018-08-06T00:18:08.855Z,101412.79
2018-08-06T00:20:37.204Z,101413.69
2018-08-06T00:23:05.564Z,101409.42
2018-08-06T00:25:33.873Z,101404.02
2018-08-06T00:28:02.247Z,101400.69
2018-08-06T00:30:30.595Z,101407.00
2018-08-06T00:32:59.067Z,101399.00
2018-08-06T00:35:27.832Z,101399.59
2018-08-06T00:37:56.224Z,101400.80
2018-08-06T00:40:24.568Z,101397.17
2018-08-06T00:42:52.958Z,101394.64
2018-08-06T00:45:22.010Z,101389.62
2018-08-06T00:47:50.856Z,101392.43
2018-08-06T00:50:19.166Z,101390.69
2018-08-06T00:52:47.493Z,101390.62
2018-08-06T00:55:17.675Z,101386.88
2018-08-06T00:57:46.032Z,101389.41
2018-08-06T01:00:18.834Z,101385.65
2018-08-06T01:02:47.207Z,101374.35
2018-08-06T01:05:16.049Z,101370.97
2018-08-06T01:07:44.903Z,101371.03
2018-08-06T01:10:14.663Z,101363.30
2018-08-06T01:12:43.081Z,101367.03
2018-08-06T01:15:13.470Z,101361.07
2018-08-06T01:17:41.965Z,101355.02
2018-08-06T01:20:12.014Z,101353.30
2018-08-06T01:22:40.967Z,101347.83
2018-08-06T01:25:09.366Z,101347.52
2018-08-06T01:27:38.013Z,101349.81
2018-08-06T01:30:07.769Z,101355.01
2018-08-06T01:32:36.526Z,101356.44
2018-08-06T01:35:05.473Z,101349.66
2018-08-06T01:37:33.999Z,101357.05
2018-08-06T01:40:02.343Z,101351.87
2018-08-06T01:42:30.728Z,101352.45
2018-08-06T01:44:59.119Z,101349.13
2018-08-06T01:47:27.461Z,101343.71
2018-08-06T01:49:55.769Z,101349.56
2018-08-06T01:52:24.173Z,101345.05
2018-08-06T01:54:52.494Z,101341.05
2018-08-06T01:57:20.954Z,101331.59
2018-08-06T01:59:49.271Z,101330.06
2018-08-06T02:02:17.621Z,101324.56
2018-08-06T02:04:45.934Z,101319.23
2018-08-06T02:07:14.281Z,101319.45
2018-08-06T02:09:42.584Z,101321.14
2018-08-06T02:12:11.026Z,101315.20
2018-08-06T02:14:39.378Z,101310.61
2018-08-06T02:17:07.789Z,101310.30
2018-08-06T02:19:36.110Z,101311.13
2018-08-06T02:22:04.500Z,101311.69
2018-08-06T02:24:32.876Z,101314.27
2018-08-06T02:27:01.216Z,101312.94
2018-08-06T02:29:29.695Z,101312.22
2018-08-06T02:31:58.157Z,101312.59
2018-08-06T02:34:26.477Z,101313.47
2018-08-06T02:36:54.863Z,101309.30
2018-08-06T02:39:23.216Z,101311.14
2018-08-06T02:41:51.578Z,101312.19
2018-08-06T02:44:19.995Z,101308.19
2018-08-06T02:46:48.321Z,101291.01
2018-08-06T02:49:16.696Z,101284.66
2018-08-06T02:51:45.103Z,101285.17
2018-08-06T02:54:13.427Z,101282.25
2018-08-06T02:56:41.817Z,101284.94
2018-08-06T02:59:10.226Z,101285.95
2018-08-06T03:01:38.559Z,101292.42
2018-08-06T03:04:06.958Z,101285.95
2018-08-06T03:06:35.279Z,101283.85
2018-08-06T03:09:04.125Z,101281.09
2018-08-06T03:11:32.459Z,101280.77
2018-08-06T03:14:00.819Z,101283.92
2018-08-06T03:16:29.153Z,101284.07
2018-08-06T03:18:57.527Z,101282.23
2018-08-06T03:21:25.930Z,101277.77
2018-08-06T03:23:54.292Z,101277.59
2018-08-06T03:26:22.616Z,101277.80
2018-08-06T03:28:51.044Z,101273.97
2018-08-06T03:31:19.386Z,101280.05
2018-08-06T03:33:47.712Z,101269.30
2018-08-06T03:36:16.077Z,101276.42
2018-08-06T03:38:44.383Z,101268.59
2018-08-06T03:41:12.835Z,101262.64
2018-08-06T03:43:41.143Z,101262.30
2018-08-06T03:46:09.466Z,101263.09
2018-08-06T03:48:37.800Z,101269.88
2018-08-06T03:51:06.136Z,101264.53
2018-08-06T03:53:34.469Z,101262.03
2018-08-06T03:56:02.873Z,101258.23
2018-08-06T03:58:31.232Z,101258.73
2018-08-06T04:00:59.617Z,101258.91
2018-08-06T04:03:27.956Z,101255.92
2018-08-06T04:05:56.335Z,101259.10
2018-08-06T04:08:24.810Z,101252.80
2018-08-06T04:10:53.214Z,101257.48
2018-08-06T04:13:21.596Z,101251.06
2018-08-06T04:15:49.943Z,101248.25
2018-08-06T04:18:18.363Z,101257.89
2018-08-06T04:20:46.763Z,101251.69
2018-08-06T04:23:15.144Z,101252.80
2018-08-06T04:25:43.493Z,101256.44
2018-08-06T04:28:11.835Z,101256.30
2018-08-06T04:30:40.236Z,101252.44
2018-08-06T04:33:08.713Z,101256.48
2018-08-06T04:35:36.959Z,101257.18
2018-08-06T04:38:05.495Z,101254.48
2018-08-06T04:40:33.817Z,101253.82
2018-08-06T04:43:02.116Z,101253.16
2018-08-06T04:45:30.451Z,101252.64
2018-08-06T04:47:58.860Z,101250.81
2018-08-06T04:50:27.199Z,101248.77
2018-08-06T04:52:55.540Z,101243.52
2018-08-06T04:55:23.864Z,101244.17
2018-08-06T04:57:52.792Z,101242.83
2018-08-06T05:00:21.084Z,101238.66
2018-08-06T05:02:49.462Z,101245.03
2018-08-06T05:05:17.853Z,101240.03
2018-08-06T05:07:46.213Z,101234.52
2018-08-06T05:10:14.533Z,101230.44
2018-08-06T05:12:42.941Z,101229.35
2018-08-06T05:15:11.331Z,101227.28
2018-08-06T05:17:39.665Z,101232.84
2018-08-06T05:20:08.028Z,101229.42
2018-08-06T05:22:36.386Z,101240.26
2018-08-06T05:25:05.186Z,101237.11
2018-08-06T05:27:33.516Z,101230.80
2018-08-06T05:30:01.880Z,101234.58
2018-08-06T05:32:30.239Z,101235.06
2018-08-06T05:34:58.577Z,101230.95
2018-08-06T05:37:27.004Z,101235.87
2018-08-06T05:39:55.364Z,101228.95
2018-08-06T05:42:23.703Z,101225.67
2018-08-06T05:44:52.095Z,101230.29
2018-08-06T05:47:20.411Z,101222.61
2018-08-06T05:49:48.748Z,101227.45
2018-08-06T05:52:17.111Z,101229.59
2018-08-06T05:54:45.575Z,101233.25
2018-08-06T05:57:13.950Z,101233.63
2018-08-06T05:59:42.306Z,101232.25
2018-08-06T06:02:10.639Z,101232.73
2018-08-06T06:04:38.995Z,101223.56
2018-08-06T06:07:07.773Z,101228.79
2018-08-06T06:09:36.117Z,101233.00
2018-08-06T06:12:04.511Z,101235.07
2018-08-06T06:14:32.860Z,101235.75
2018-08-06T06:17:01.209Z,101232.39
2018-08-06T06:19:29.537Z,101238.82
2018-08-06T06:21:57.913Z,101232.34
2018-08-06T06:24:26.284Z,101226.25
2018-08-06T06:26:54.642Z,101229.70
2018-08-06T06:29:23.022Z,101226.87
2018-08-06T06:31:51.348Z,101218.56
2018-08-06T06:34:19.735Z,101222.63
2018-08-06T06:36:48.079Z,101224.83
2018-08-06T06:39:16.453Z,101223.81
2018-08-06T06:41:44.882Z,101217.00
2018-08-06T06:44:13.236Z,101223.81
2018-08-06T06:46:41.613Z,101226.91
2018-08-06T06:49:10.378Z,101228.29
2018-08-06T06:51:38.705Z,101226.43
2018-08-06T06:54:07.626Z,101220.08
2018-08-06T06:56:36.037Z,101224.55
2018-08-06T06:59:04.517Z,101229.74
2018-08-06T07:01:33.010Z,101225.19
2018-08-06T07:04:01.359Z,101228.55
2018-08-06T07:06:29.844Z,101227.17
2018-08-06T07:08:58.185Z,101227.27
2018-08-06T07:11:26.596Z,101227.36
2018-08-06T07:13:55.043Z,101224.83
2018-08-06T07:16:23.356Z,101224.33
2018-08-06T07:18:51.836Z,101222.94
2018-08-06T07:21:20.215Z,101219.87
2018-08-06T07:23:48.622Z,101220.41
2018-08-06T07:26:16.982Z,101219.30
2018-08-06T07:28:45.367Z,101219.16
2018-08-06T07:31:13.699Z,101217.34
2018-08-06T07:33:42.096Z,101211.48
2018-08-06T07:36:10.422Z,101211.62
2018-08-06T07:38:38.797Z,101208.20
2018-08-06T07:41:07.157Z,101201.62
2018-08-06T07:43:35.556Z,101198.30
2018-08-06T07:46:03.879Z,101204.19
2018-08-06T07:48:32.532Z,101194.57
2018-08-06T07:51:00.862Z,101195.39
2018-08-06T07:53:29.205Z,101187.02
2018-08-06T07:55:57.516Z,101181.64
2018-08-06T07:58:25.906Z,101178.72
2018-08-06T08:00:54.239Z,101184.22
2018-08-06T08:03:22.648Z,101181.49
2018-08-06T08:05:51.031Z,101174.55
2018-08-06T08:08:19.456Z,101180.13
2018-08-06T08:10:47.842Z,101175.40
2018-08-06T08:13:16.242Z,101174.77
2018-08-06T08:15:44.648Z,101173.77
2018-08-06T08:18:13.121Z,101161.84
2018-08-06T08:20:41.535Z,101159.30
2018-08-06T08:23:09.871Z,101164.00
2018-08-06T08:25:38.253Z,101161.31
2018-08-06T08:28:06.569Z,101157.88
2018-08-06T08:30:34.957Z,101152.48
2018-08-06T08:33:03.265Z,101148.87
2018-08-06T08:35:32.652Z,101140.69
2018-08-06T08:38:01.352Z,101144.44
2018-08-06T08:40:29.878Z,101142.52
2018-08-06T08:42:58.219Z,101142.62
2018-08-06T08:45:26.792Z,101138.92
2018-08-06T08:47:55.187Z,101136.92
2018-08-06T08:50:23.572Z,101130.06
2018-08-06T08:52:51.947Z,101130.73
2018-08-06T08:55:20.990Z,101130.82
2018-08-06T08:57:49.359Z,101124.86
2018-08-06T09:00:19.493Z,101116.92
2018-08-06T09:02:48.904Z,101119.15
2018-08-06T09:05:18.077Z,101115.11
2018-08-06T09:07:46.818Z,101113.48
2018-08-06T09:10:16.506Z,101113.56
2018-08-06T09:12:45.105Z,101117.31
2018-08-06T09:15:24.637Z,101116.39
2018-08-06T09:17:53.117Z,101112.31
2018-08-06T09:20:21.801Z,101107.33
2018-08-06T09:22:50.144Z,101107.80
2018-08-06T09:25:18.577Z,101102.39
2018-08-06T09:27:48.249Z,101107.38
2018-08-06T09:30:19.005Z,101104.53
2018-08-06T09:32:48.812Z,101102.16
2018-08-06T09:35:18.020Z,101098.80
2018-08-06T09:37:46.364Z,101095.83
2018-08-06T09:40:16.049Z,101096.09
2018-08-06T09:42:45.185Z,101095.28
2018-08-06T09:45:14.825Z,101092.84
2018-08-06T09:47:44.403Z,101088.75
2018-08-06T09:50:13.595Z,101087.52
2018-08-06T09:52:42.805Z,101085.02
2018-08-06T09:55:14.656Z,101083.81
2018-08-06T09:57:43.416Z,101071.25
2018-08-06T10:00:19.351Z,101066.12
2018-08-06T10:02:48.596Z,101057.20
2018-08-06T10:05:17.078Z,101057.95
2018-08-06T10:07:45.988Z,101049.59
2018-08-06T10:10:14.739Z,101051.53
2018-08-06T10:12:43.847Z,101043.34
2018-08-06T10:15:12.757Z,101042.89
2018-08-06T10:17:41.610Z,101032.52
2018-08-06T10:20:14.487Z,101030.45
2018-08-06T10:22:42.857Z,101028.94
2018-08-06T10:25:12.418Z,101025.97
2018-08-06T10:27:41.582Z,101018.62
2018-08-06T10:30:18.890Z,101018.09
2018-08-06T10:32:47.343Z,101013.25
2018-08-06T10:35:16.879Z,101007.69
2018-08-06T10:37:45.463Z,101004.82
2018-08-06T10:40:16.792Z,100999.24
2018-08-06T10:42:45.689Z,100990.89
2018-08-06T10:45:15.433Z,100988.62
2018-08-06T10:47:43.969Z,100989.84
2018-08-06T10:50:12.460Z,100988.02
2018-08-06T10:52:40.958Z,100982.66
2018-08-06T10:55:10.125Z,100980.75
2018-08-06T10:57:39.270Z,100973.45
2018-08-06T11:00:10.072Z,100968.30
2018-08-06T11:02:38.448Z,100965.81
2018-08-06T11:05:08.641Z,100956.64
2018-08-06T11:07:37.178Z,100960.20
2018-08-06T11:10:08.177Z,100952.65
2018-08-06T11:12:37.153Z,100954.55
2018-08-06T11:15:07.627Z,100951.34
2018-08-06T11:17:36.251Z,100950.03
2018-08-06T11:20:05.123Z,100942.48
2018-08-06T11:22:33.469Z,100937.70
2018-08-06T11:25:01.943Z,100937.27
2018-08-06T11:27:30.568Z,100938.69
2018-08-06T11:29:59.216Z,100937.95
2018-08-06T11:32:27.797Z,100925.73
2018-08-06T11:34:56.304Z,100920.28
2018-08-06T11:37:25.235Z,100920.80
2018-08-06T11:39:53.933Z,100913.48
2018-08-06T11:42:22.292Z,100915.63
2018-08-06T11:44:50.624Z,100902.91
2018-08-06T11:47:19.001Z,100910.49
2018-08-06T11:49:54.117Z,100904.84
2018-08-06T11:52:22.491Z,100901.91
2018-08-06T11:54:51.144Z,100896.25
2018-08-06T11:57:19.577Z,100889.78
2018-08-06T11:59:48.076Z,100884.09
2018-08-06T12:02:16.392Z,100885.72
2018-08-06T12:04:44.767Z,100884.13
2018-08-06T12:07:13.122Z,100890.62
2018-08-06T12:09:41.432Z,100883.83
2018-08-06T12:12:09.776Z,100877.05
2018-08-06T12:14:38.122Z,100877.84
2018-08-06T12:17:06.480Z,100873.00
2018-08-06T12:19:34.847Z,100874.36
2018-08-06T12:22:03.207Z,100872.70
2018-08-06T12:24:31.534Z,100869.98
2018-08-06T12:26:59.884Z,100868.37
2018-08-06T12:29:28.383Z,100872.71
2018-08-06T12:31:57.483Z,100879.48
2018-08-06T12:34:25.960Z,100873.78
2018-08-06T12:36:54.327Z,100875.70
2018-08-06T12:39:22.843Z,100862.91
2018-08-06T12:41:51.189Z,100859.92
2018-08-06T12:44:19.575Z,100856.41
2018-08-06T12:46:47.938Z,100852.34
2018-08-06T12:49:16.308Z,100854.52
2018-08-06T12:51:44.820Z,100852.35
2018-08-06T12:54:13.205Z,100850.70
2018-08-06T12:56:41.571Z,100849.90
2018-08-06T12:59:09.930Z,100838.23
2018-08-06T13:01:38.328Z,100839.03
2018-08-06T13:04:06.747Z,100840.94
2018-08-06T13:06:35.118Z,100830.87
2018-08-06T13:09:03.764Z,100829.22
2018-08-06T13:11:32.084Z,100821.58
2018-08-06T13:14:00.406Z,100820.98
2018-08-06T13:16:28.759Z,100814.18
2018-08-06T13:18:57.089Z,100814.64
2018-08-06T13:21:25.409Z,100814.89
2018-08-06T13:23:53.703Z,100800.55
2018-08-06T13:26:22.041Z,100807.64
2018-08-06T13:28:50.570Z,100804.61
2018-08-06T13:31:19.016Z,100799.94
2018-08-06T13:33:47.354Z,100804.86
2018-08-06T13:36:15.718Z,100795.36
2018-08-06T13:38:44.127Z,100794.30
2018-08-06T13:41:12.487Z,100794.55
2018-08-06T13:43:40.846Z,100783.38
2018-08-06T13:46:09.234Z,100781.41
2018-08-06T13:48:37.640Z,100777.02
2018-08-06T13:51:06.040Z,100776.13
2018-08-06T13:53:34.435Z,100772.25
2018-08-06T13:56:03.342Z,100769.22
2018-08-06T13:58:31.711Z,100767.34
2018-08-06T14:01:00.092Z,100761.65
2018-08-06T14:03:28.514Z,100757.34
2018-08-06T14:05:56.823Z,100750.80
2018-08-06T14:08:25.183Z,100752.43
2018-08-06T14:10:53.556Z,100752.77
2018-08-06T14:13:21.959Z,100747.65
2018-08-06T14:15:50.321Z,100741.36
2018-08-06T14:18:20.435Z,100743.50
2018-08-06T14:20:48.824Z,100743.48
2018-08-06T14:23:17.190Z,100742.08
2018-08-06T14:25:45.495Z,100735.56
2018-08-06T14:28:14.193Z,100732.73
2018-08-06T14:30:49.170Z,100728.14
2018-08-06T14:33:17.563Z,100735.22
2018-08-06T14:35:45.900Z,100728.77
2018-08-06T14:38:14.341Z,100728.78
2018-08-06T14:40:43.081Z,100724.38
2018-08-06T14:43:11.479Z,100720.30
2018-08-06T14:45:39.871Z,100712.97
2018-08-06T14:48:08.243Z,100715.95
2018-08-06T14:50:36.613Z,100709.16
2018-08-06T14:53:04.932Z,100712.42
2018-08-06T14:55:33.312Z,100709.94
2018-08-06T14:58:01.649Z,100700.43
2018-08-06T15:00:30.032Z,100705.88
2018-08-06T15:02:58.474Z,100699.09
2018-08-06T15:05:26.986Z,100698.04
2018-08-06T15:07:55.384Z,100693.41
2018-08-06T15:10:23.677Z,100689.28
2018-08-06T15:12:52.025Z,100692.27
2018-08-06T15:15:20.971Z,100687.86
2018-08-06T15:17:49.437Z,100690.86
2018-08-06T15:20:19.543Z,100686.27
2018-08-06T15:22:48.199Z,100683.03
2018-08-06T15:25:22.350Z,100687.59
2018-08-06T15:27:51.535Z,100676.14
2018-08-06T15:30:20.021Z,100675.59
2018-08-06T15:32:48.457Z,100676.69
2018-08-06T15:35:16.810Z,100678.86
2018-08-06T15:37:46.230Z,100670.63
2018-08-06T15:40:18.400Z,100674.45
2018-08-06T15:42:46.836Z,100669.32
2018-08-06T15:45:15.444Z,100667.95
2018-08-06T15:47:44.714Z,100671.48
2018-08-06T15:50:18.298Z,100669.80
2018-08-06T15:52:46.647Z,100665.99
2018-08-06T15:55:15.260Z,100660.39
2018-08-06T15:57:43.852Z,100661.68
2018-08-06T16:00:14.578Z,100658.44
2018-08-06T16:02:43.187Z,100653.27
2018-08-06T16:05:18.141Z,100652.50
2018-08-06T16:07:46.895Z,100648.83
2018-08-06T16:10:15.646Z,100644.23
2018-08-06T16:12:44.151Z,100642.33
2018-08-06T16:15:13.759Z,100639.39
2018-08-06T16:17:42.870Z,100635.86
2018-08-06T16:20:14.272Z,100637.47
2018-08-06T16:22:42.693Z,100634.20
2018-08-06T16:25:12.005Z,100632.03
2018-08-06T16:27:40.507Z,100630.19
2018-08-06T16:30:13.244Z,100632.11
2018-08-06T16:32:41.602Z,100626.91
2018-08-06T16:35:09.917Z,100627.45
2018-08-06T16:37:38.328Z,100622.27
2018-08-06T16:40:07.866Z,100621.71
2018-08-06T16:42:36.349Z,100624.18
2018-08-06T16:45:05.338Z,100617.40
2018-08-06T16:47:34.708Z,100619.87
2018-08-06T16:50:03.157Z,100609.80
2018-08-06T16:52:31.910Z,100609.26
2018-08-06T16:55:00.629Z,100611.78
2018-08-06T16:57:29.107Z,100609.91
2018-08-06T16:59:57.468Z,100602.00
2018-08-06T17:02:25.879Z,100607.16
2018-08-06T17:04:54.273Z,100599.23
2018-08-06T17:07:25.025Z,100602.80
2018-08-06T17:09:53.754Z,100600.14
2018-08-06T17:12:22.168Z,100598.55
2018-08-06T17:14:53.320Z,100592.58
2018-08-06T17:17:21.703Z,100596.47
2018-08-06T17:19:50.056Z,100601.69
2018-08-06T17:22:18.436Z,100593.28
2018-08-06T17:24:46.754Z,100598.71
2018-08-06T17:27:15.083Z,100604.39
2018-08-06T17:29:43.449Z,100603.58
2018-08-06T17:32:11.797Z,100602.52
2018-08-06T17:34:40.148Z,100599.51
2018-08-06T17:37:08.510Z,100603.84
2018-08-06T17:39:36.886Z,100600.58
2018-08-06T17:42:05.391Z,100602.48
2018-08-06T17:44:33.733Z,100595.98
2018-08-06T17:47:02.177Z,100596.55
2018-08-06T17:49:30.528Z,100598.77
2018-08-06T17:51:58.888Z,100592.56
2018-08-06T17:54:28.328Z,100596.16
2018-08-06T17:56:56.679Z,100599.73
2018-08-06T17:59:25.027Z,100597.31
2018-08-06T18:01:53.435Z,100598.67
2018-08-06T18:04:21.808Z,100595.45
2018-08-06T18:06:50.149Z,100596.81
2018-08-06T18:09:18.493Z,100594.38
2018-08-06T18:11:46.899Z,100591.70
2018-08-06T18:14:15.318Z,100594.17
2018-08-06T18:16:43.733Z,100591.44
2018-08-06T18:19:12.164Z,100589.30
2018-08-06T18:21:40.507Z,100588.19
2018-08-06T18:24:08.915Z,100596.83
2018-08-06T18:26:37.297Z,100591.11
2018-08-06T18:29:05.846Z,100588.99
2018-08-06T18:31:34.202Z,100592.01
2018-08-06T18:34:02.614Z,100596.87
2018-08-06T18:36:30.979Z,100593.91
2018-08-06T18:38:59.373Z,100597.48
2018-08-06T18:41:27.748Z,100597.78
2018-08-06T18:43:56.141Z,100593.50
2018-08-06T18:46:24.485Z,100598.97
2018-08-06T18:48:52.851Z,100596.30
2018-08-06T18:51:21.225Z,100599.30
2018-08-06T18:53:49.609Z,100596.61
2018-08-06T18:56:17.971Z,100596.11
2018-08-06T18:58:46.402Z,100598.03
2018-08-06T19:01:14.713Z,100600.20
2018-08-06T19:03:43.079Z,100606.95
2018-08-06T19:06:11.533Z,100603.13
2018-08-06T19:08:39.875Z,100604.74
2018-08-06T19:11:08.503Z,100606.36
2018-08-06T19:13:42.469Z,100603.56
2018-08-06T19:16:10.807Z,100605.69
2018-08-06T19:18:44.456Z,100612.68
2018-08-06T19:21:12.785Z,100608.04
2018-08-06T19:23:41.155Z,100608.58
2018-08-06T19:26:15.913Z,100609.87
2018-08-06T19:28:44.228Z,100609.56
2018-08-06T19:31:18.041Z,100611.42
2018-08-06T19:33:46.365Z,100608.38
2018-08-06T19:36:14.717Z,100616.22
2018-08-06T19:38:43.049Z,100611.03
2018-08-06T19:41:11.490Z,100614.75
2018-08-06T19:43:40.405Z,100615.47
2018-08-06T19:46:09.379Z,100612.70
2018-08-06T19:48:37.808Z,100617.98
2018-08-06T19:51:06.343Z,100613.86
2018-08-06T19:53:34.727Z,100613.47
2018-08-06T19:56:08.346Z,100615.53
2018-08-06T19:58:37.155Z,100616.24
2018-08-06T20:01:05.501Z,100620.73
2018-08-06T20:03:33.993Z,100614.19
2018-08-06T20:06:02.411Z,100613.81
2018-08-06T20:08:30.827Z,100614.81
2018-08-06T20:10:59.221Z,100610.12
2018-08-06T20:13:27.591Z,100611.62
2018-08-06T20:15:56.076Z,100614.00
2018-08-06T20:18:24.460Z,100614.73
2018-08-06T20:20:52.931Z,100617.39
2018-08-06T20:23:21.367Z,100624.85
2018-08-06T20:25:50.232Z,100622.56
2018-08-06T20:28:18.556Z,100623.20
2018-08-06T20:30:46.984Z,100627.23
2018-08-06T20:33:15.300Z,100619.64
2018-08-06T20:35:43.701Z,100622.78
2018-08-06T20:38:12.057Z,100623.72
2018-08-06T20:40:40.425Z,100626.04
2018-08-06T20:43:08.770Z,100625.94
2018-08-06T20:45:37.199Z,100618.89
2018-08-06T20:48:05.816Z,100620.45
2018-08-06T20:50:34.197Z,100620.34
2018-08-06T20:53:02.580Z,100625.08
2018-08-06T20:55:30.941Z,100624.17
2018-08-06T20:57:59.345Z,100632.25
2018-08-06T21:00:27.730Z,100626.28
2018-08-06T21:02:56.141Z,100637.76
2018-08-06T21:05:24.527Z,100631.23
2018-08-06T21:07:52.977Z,100632.73
2018-08-06T21:10:21.485Z,100637.69
2018-08-06T21:12:50.064Z,100628.90
2018-08-06T21:15:18.448Z,100627.22
2018-08-06T21:17:46.804Z,100629.63
2018-08-06T21:20:16.648Z,100631.88
2018-08-06T21:22:46.278Z,100632.89
2018-08-06T21:25:14.850Z,100625.02
2018-08-06T21:27:44.325Z,100624.41
2018-08-06T21:30:17.714Z,100627.80
2018-08-06T21:32:48.850Z,100625.90
2018-08-06T21:35:18.184Z,100623.16
2018-08-06T21:37:47.614Z,100629.87
2018-08-06T21:40:16.218Z,100629.01
2018-08-06T21:42:44.610Z,100629.70
2018-08-06T21:45:12.961Z,100631.75
2018-08-06T21:47:41.553Z,100622.78
2018-08-06T21:50:10.836Z,100624.82
2018-08-06T21:52:39.234Z,100623.45
2018-08-06T21:55:07.908Z,100622.80
2018-08-06T21:57:36.219Z,100618.55
2018-08-06T22:00:09.719Z,100621.69
2018-08-06T22:02:38.131Z,100619.63
2018-08-06T22:05:07.725Z,100615.44
2018-08-06T22:07:36.129Z,100616.50
2018-08-06T22:10:04.941Z,100612.28
2018-08-06T22:12:33.344Z,100606.37
2018-08-06T22:15:01.743Z,100611.22
2018-08-06T22:17:30.220Z,100607.97
2018-08-06T22:19:58.601Z,100612.69
2018-08-06T22:22:26.966Z,100613.13
2018-08-06T22:24:55.339Z,100614.77
2018-08-06T22:27:23.720Z,100616.53
2018-08-06T22:29:52.055Z,100615.73
2018-08-06T22:34:21.473Z,100614.65
2018-08-06T22:36:49.856Z,100605.25
2018-08-06T22:39:18.246Z,100606.91
2018-08-06T22:41:46.631Z,100606.91
2018-08-06T22:44:14.991Z,100601.58
2018-08-06T22:46:43.365Z,100599.56
2018-08-06T22:49:11.712Z,100602.59
2018-08-06T22:51:40.052Z,100602.24
2018-08-06T22:54:08.478Z,100600.73
2018-08-06T22:56:36.837Z,100608.19
2018-08-06T22:59:05.204Z,100597.16
2018-08-06T23:01:33.545Z,100593.14
2018-08-06T23:04:01.888Z,100596.50
2018-08-06T23:06:30.278Z,100582.27
2018-08-06T23:08:58.619Z,100582.80
2018-08-06T23:11:27.000Z,100584.66
2018-08-06T23:13:55.363Z,100579.02
2018-08-06T23:16:23.764Z,100579.51
2018-08-06T23:18:52.113Z,100583.03
2018-08-06T23:21:20.398Z,100580.28
2018-08-06T23:23:48.737Z,100583.61
2018-08-06T23:26:17.095Z,100580.08
2018-08-06T23:28:45.561Z,100579.01
2018-08-06T23:31:13.901Z,100577.45
2018-08-06T23:33:42.363Z,100572.23
2018-08-06T23:36:10.743Z,100574.27
2018-08-06T23:38:39.117Z,100571.30
2018-08-06T23:41:07.613Z,100568.38
2018-08-06T23:43:35.936Z,100566.51
2018-08-06T23:46:04.292Z,100562.56
2018-08-06T23:48:32.702Z,100556.73
2018-08-06T23:51:01.045Z,100548.55
2018-08-06T23:53:29.391Z,100548.79
2018-08-06T23:55:57.758Z,100547.83
2018-08-06T23:58:26.109Z,100548.91
